Iliamna, Alaska
Current Conditions -  °F | °C
As of 8:53 PM on Saturday 22 Nov 2014 (Local Time) from PAIL Reporting Station
Clear Clear  
Wind Chill: 24°   Ceiling: Unl
Heat Index: 30°   Visibility: 10mi
Dew Point: 27°   Wind: 6mph
Humidity: 88%   Direction: 10°N
Pressure: 29.16"   Gusts: NA
Location:  59.76°N, 154.83°W
Report Text: PAIL 230553Z 01005KT 10SM CLR M01/M03 A2916 RMK AO2 SLP877 T10111028 10033 21011 51014
Loading
Personal Weather Stations






























Interactive Weather Map New forecast layout! Learn more

10-Day Weather Forecast

Advertisements
Track Severe Weather on mobile